createdAt,value
2022-09-14T00:01:48.847Z,13.63
2022-09-14T00:04:18.407Z,15.43
2022-09-14T00:06:46.103Z,14.77
2022-09-14T00:09:20.334Z,14.45
2022-09-14T00:11:47.606Z,15.45
2022-09-14T00:14:15.142Z,13.93
2022-09-14T00:16:42.939Z,14.50
2022-09-14T00:19:36.419Z,13.95
2022-09-14T00:22:03.872Z,14.70
2022-09-14T00:24:31.232Z,15.23
2022-09-14T00:26:58.275Z,15.63
2022-09-14T00:29:25.578Z,14.35
2022-09-14T00:31:52.672Z,14.85
2022-09-14T00:34:19.991Z,15.05
2022-09-14T00:36:48.969Z,15.10
2022-09-14T00:39:18.359Z,14.07
2022-09-14T00:41:47.172Z,13.32
2022-09-14T00:44:13.922Z,12.82
2022-09-14T00:46:46.779Z,12.25
2022-09-14T00:49:22.736Z,11.27
2022-09-14T00:52:01.369Z,11.65
2022-09-14T00:54:28.205Z,12.52
2022-09-14T00:56:55.932Z,11.05
2022-09-14T00:59:27.607Z,11.05
2022-09-14T01:01:54.538Z,9.95
2022-09-14T01:04:22.300Z,9.68
2022-09-14T01:07:18.219Z,10.07
2022-09-14T01:10:04.467Z,11.13
2022-09-14T01:12:49.088Z,10.60
2022-09-14T01:15:27.774Z,11.05
2022-09-14T01:17:57.578Z,11.85
2022-09-14T01:20:31.312Z,11.63
2022-09-14T01:23:36.554Z,11.10
2022-09-14T01:26:03.298Z,11.55
2022-09-14T01:28:41.315Z,11.50
2022-09-14T01:31:18.597Z,11.05
2022-09-14T01:34:14.734Z,11.20
2022-09-14T01:36:46.447Z,11.50
2022-09-14T01:39:16.409Z,12.02
2022-09-14T01:41:45.678Z,12.32
2022-09-14T01:44:25.455Z,13.23
2022-09-14T01:46:56.907Z,13.73
2022-09-14T01:49:41.846Z,15.55
2022-09-14T01:52:16.800Z,15.95
2022-09-14T01:54:58.723Z,13.75
2022-09-14T01:57:34.514Z,14.00
2022-09-14T02:00:10.103Z,13.10
2022-09-14T02:02:44.787Z,13.95
2022-09-14T02:05:17.255Z,15.25
2022-09-14T02:07:44.292Z,12.75
2022-09-14T02:10:15.535Z,12.73
2022-09-14T02:12:42.976Z,12.60
2022-09-14T02:15:12.819Z,12.35
2022-09-14T02:17:40.164Z,11.98
2022-09-14T02:20:26.563Z,12.38
2022-09-14T02:22:53.648Z,10.77
2022-09-14T02:25:21.321Z,11.68
2022-09-14T02:27:48.576Z,11.80
2022-09-14T02:30:17.130Z,13.10
2022-09-14T02:33:08.420Z,13.30
2022-09-14T02:35:56.599Z,15.95
2022-09-14T02:38:58.703Z,18.65
2022-09-14T02:41:39.720Z,18.08
2022-09-14T02:44:37.243Z,19.38
2022-09-14T02:47:14.294Z,18.52
2022-09-14T02:50:13.059Z,16.55
2022-09-14T02:53:12.319Z,19.08
2022-09-14T02:55:46.643Z,18.25
2022-09-14T02:58:14.627Z,19.13
2022-09-14T03:00:45.299Z,19.02
2022-09-14T03:03:15.169Z,19.15
2022-09-14T03:05:42.612Z,18.38
2022-09-14T03:08:12.791Z,18.98
2022-09-14T03:10:43.407Z,17.20
2022-09-14T03:13:10.780Z,17.98
2022-09-14T03:15:37.739Z,16.98
2022-09-14T03:18:09.140Z,16.73
2022-09-14T03:20:40.145Z,19.45
2022-09-14T03:23:09.113Z,17.50
2022-09-14T03:25:41.384Z,17.27
2022-09-14T03:28:09.154Z,16.95
2022-09-14T03:30:36.344Z,18.05
2022-09-14T03:33:03.831Z,17.65
2022-09-14T03:35:31.646Z,17.85
2022-09-14T03:37:59.819Z,17.80
2022-09-14T03:40:27.670Z,20.08
2022-09-14T03:42:54.892Z,18.52
2022-09-14T03:45:22.076Z,18.80
2022-09-14T03:47:49.695Z,18.70
2022-09-14T03:50:18.195Z,19.13
2022-09-14T03:52:45.169Z,19.13
2022-09-14T03:55:12.083Z,19.45
2022-09-14T03:57:39.536Z,18.17
2022-09-14T04:00:08.543Z,18.65
2022-09-14T04:02:38.997Z,18.85
2022-09-14T04:05:07.163Z,18.45
2022-09-14T04:07:34.190Z,18.65
2022-09-14T04:10:01.279Z,20.25
2022-09-14T04:12:28.295Z,19.05
2022-09-14T04:14:55.079Z,20.92
2022-09-14T04:17:25.246Z,21.20
2022-09-14T04:19:52.300Z,20.35
2022-09-14T04:22:19.174Z,21.00
2022-09-14T04:24:46.136Z,20.65
2022-09-14T04:27:13.288Z,22.20
2022-09-14T04:30:02.098Z,22.42
2022-09-14T04:32:34.045Z,22.35
2022-09-14T04:35:01.375Z,21.52
2022-09-14T04:37:31.788Z,20.27
2022-09-14T04:39:58.885Z,22.92
2022-09-14T04:42:25.805Z,20.55
2022-09-14T04:44:52.705Z,20.65
2022-09-14T04:47:19.525Z,20.05
2022-09-14T04:49:47.588Z,20.33
2022-09-14T04:52:14.386Z,23.05
2022-09-14T04:54:41.192Z,23.17
2022-09-14T04:57:08.013Z,22.60
2022-09-14T04:59:35.032Z,21.33
2022-09-14T05:02:02.109Z,21.98
2022-09-14T05:04:28.960Z,22.38
2022-09-14T05:06:56.362Z,23.52
2022-09-14T05:09:23.275Z,25.77
2022-09-14T05:11:51.964Z,26.60
2022-09-14T05:14:18.778Z,25.10
2022-09-14T05:16:45.707Z,22.90
2022-09-14T05:19:17.999Z,25.42
2022-09-14T05:21:45.463Z,23.35
2022-09-14T05:24:14.885Z,22.88
2022-09-14T05:26:43.517Z,23.20
2022-09-14T05:29:16.340Z,22.42
2022-09-14T05:31:43.652Z,22.27
2022-09-14T05:34:11.276Z,20.65
2022-09-14T05:36:39.394Z,22.13
2022-09-14T05:39:08.361Z,21.17
2022-09-14T05:41:35.236Z,21.08
2022-09-14T05:44:02.180Z,22.00
2022-09-14T05:46:29.081Z,20.98
2022-09-14T05:48:58.012Z,19.77
2022-09-14T05:51:26.594Z,19.27
2022-09-14T05:53:55.536Z,18.80
2022-09-14T05:56:24.596Z,19.02
2022-09-14T05:58:52.923Z,19.25
2022-09-14T06:01:25.735Z,19.63
2022-09-14T06:03:57.544Z,19.40
2022-09-14T06:06:24.566Z,20.20
2022-09-14T06:08:54.162Z,19.23
2022-09-14T06:11:23.887Z,19.45
2022-09-14T06:13:51.269Z,18.60
2022-09-14T06:16:20.769Z,17.55
2022-09-14T06:18:50.305Z,16.80
2022-09-14T06:21:19.534Z,18.98
2022-09-14T06:23:47.565Z,17.92
2022-09-14T06:26:14.807Z,18.17
2022-09-14T06:29:01.856Z,16.05
2022-09-14T06:31:28.971Z,16.15
2022-09-14T06:33:55.808Z,17.85
2022-09-14T06:36:27.390Z,17.23
2022-09-14T06:38:59.010Z,14.73
2022-09-14T06:41:30.371Z,15.18
2022-09-14T06:43:58.955Z,15.15
2022-09-14T06:46:28.619Z,15.18
2022-09-14T06:49:02.152Z,15.60
2022-09-14T06:56:38.867Z,14.05
2022-09-14T06:59:09.639Z,13.15
2022-09-14T07:01:37.043Z,12.55
2022-09-14T07:04:04.418Z,12.65
2022-09-14T07:06:39.031Z,11.43
2022-09-14T07:09:07.289Z,11.90
2022-09-14T07:11:34.687Z,11.85
2022-09-14T07:14:02.185Z,12.77
2022-09-14T07:16:31.197Z,12.00
2022-09-14T07:19:01.766Z,11.68
2022-09-14T07:21:29.939Z,12.77
2022-09-14T07:23:56.977Z,13.32
2022-09-14T07:26:31.323Z,12.43
2022-09-14T07:29:05.279Z,11.80
2022-09-14T07:31:40.855Z,11.75
2022-09-14T07:34:08.147Z,10.75
2022-09-14T07:36:36.418Z,10.57
2022-09-14T07:39:08.558Z,10.55
2022-09-14T07:41:36.357Z,11.25
2022-09-14T07:44:06.331Z,12.32
2022-09-14T07:46:39.103Z,11.30
2022-09-14T07:49:07.408Z,12.07
2022-09-14T07:51:36.886Z,11.57
2022-09-14T07:54:06.524Z,11.07
2022-09-14T07:56:34.995Z,11.38
2022-09-14T07:59:30.873Z,11.60
2022-09-14T08:01:51.513Z,10.65
2022-09-14T08:04:18.348Z,11.45
2022-09-14T08:06:45.125Z,11.25
2022-09-14T08:09:12.451Z,10.80
2022-09-14T08:11:39.383Z,11.63
2022-09-14T08:14:12.007Z,11.65
2022-09-14T08:16:40.529Z,11.40
2022-09-14T08:19:13.318Z,11.07
2022-09-14T08:21:45.633Z,10.75
2022-09-14T08:26:41.759Z,11.35
2022-09-14T08:29:08.938Z,10.57
2022-09-14T08:31:39.365Z,10.55
2022-09-14T08:34:06.988Z,12.23
2022-09-14T08:36:36.554Z,9.88
2022-09-14T08:39:06.357Z,10.98
2022-09-14T08:41:47.551Z,11.30
2022-09-14T08:44:23.647Z,11.43
2022-09-14T08:47:13.804Z,9.85
2022-09-14T08:50:03.032Z,10.32
2022-09-14T08:52:48.091Z,9.35
2022-09-14T08:55:45.172Z,9.07
2022-09-14T08:58:48.181Z,9.02
2022-09-14T09:01:24.563Z,8.10
2022-09-14T09:04:17.401Z,8.90
2022-09-14T09:07:07.615Z,8.65
2022-09-14T09:09:46.083Z,8.40
2022-09-14T09:12:21.863Z,8.55
2022-09-14T09:15:21.308Z,8.35
2022-09-14T09:17:54.379Z,8.60
2022-09-14T09:20:34.344Z,8.73
2022-09-14T09:23:29.020Z,7.88
2022-09-14T09:26:00.584Z,8.13
2022-09-14T09:28:29.769Z,8.50
2022-09-14T09:31:04.859Z,8.52
2022-09-14T09:33:51.887Z,8.65
2022-09-14T09:36:22.439Z,8.18
2022-09-14T09:38:50.312Z,8.27
2022-09-14T09:41:22.007Z,7.82
2022-09-14T09:44:02.259Z,8.70
2022-09-14T09:46:34.542Z,8.18
2022-09-14T09:49:20.329Z,8.73
2022-09-14T09:51:47.636Z,8.55
2022-09-14T09:54:14.410Z,7.93
2022-09-14T09:57:04.546Z,7.72
2022-09-14T09:59:41.062Z,7.90
2022-09-14T10:02:41.256Z,8.88
2022-09-14T10:05:11.977Z,7.60
2022-09-14T10:08:08.045Z,7.88
2022-09-14T10:10:39.260Z,8.93
2022-09-14T10:13:23.524Z,8.27
2022-09-14T10:15:50.613Z,7.63
2022-09-14T10:18:19.200Z,8.30
2022-09-14T10:20:52.647Z,8.85
2022-09-14T10:23:19.521Z,7.97
2022-09-14T10:25:49.455Z,7.70
2022-09-14T10:28:22.669Z,7.75
2022-09-14T10:31:00.649Z,8.40
2022-09-14T10:33:28.745Z,7.80
2022-09-14T10:36:13.788Z,8.07
2022-09-14T10:38:58.479Z,8.20
2022-09-14T10:41:33.563Z,8.25
2022-09-14T10:44:06.263Z,7.15
2022-09-14T10:46:42.622Z,8.43
2022-09-14T10:49:27.898Z,9.10
2022-09-14T10:52:03.791Z,7.93
2022-09-14T10:55:04.741Z,8.32
2022-09-14T10:57:50.643Z,8.13
2022-09-14T11:00:41.658Z,7.35
2022-09-14T11:03:14.343Z,7.15
2022-09-14T11:05:57.527Z,7.40
2022-09-14T11:08:46.437Z,7.82
2022-09-14T11:11:36.668Z,7.43
2022-09-14T11:14:12.106Z,8.32
2022-09-14T11:17:07.234Z,7.03
2022-09-14T11:19:54.236Z,6.57
2022-09-14T11:22:42.911Z,6.80
2022-09-14T11:25:27.487Z,5.57
2022-09-14T11:28:09.475Z,4.53
2022-09-14T11:30:44.244Z,4.57
2022-09-14T11:33:20.449Z,4.93
2022-09-14T11:35:57.150Z,5.00
2022-09-14T11:38:31.112Z,5.25
2022-09-14T11:41:03.044Z,4.93
2022-09-14T11:43:40.531Z,4.07
2022-09-14T11:46:12.678Z,4.28
2022-09-14T11:49:07.116Z,4.80
2022-09-14T11:51:43.659Z,3.90
2022-09-14T11:54:17.270Z,4.45
2022-09-14T11:56:48.604Z,4.03
2022-09-14T11:59:52.987Z,3.55
2022-09-14T12:02:22.747Z,4.22
2022-09-14T12:05:04.987Z,3.70
2022-09-14T12:07:46.920Z,4.03
2022-09-14T12:10:20.644Z,3.70
2022-09-14T12:12:58.115Z,2.83
2022-09-14T12:15:25.000Z,3.50
2022-09-14T12:18:22.407Z,2.63
2022-09-14T12:21:09.449Z,2.65
2022-09-14T12:23:39.460Z,2.72
2022-09-14T12:26:06.425Z,3.00
2022-09-14T12:28:39.654Z,2.55
2022-09-14T12:31:09.520Z,2.50
2022-09-14T12:33:36.646Z,2.30
2022-09-14T12:36:21.710Z,2.50
2022-09-14T12:38:52.226Z,2.50
2022-09-14T12:41:21.924Z,2.40
2022-09-14T12:43:51.790Z,2.90
2022-09-14T12:46:21.862Z,2.80
2022-09-14T12:49:34.579Z,2.30
2022-09-14T12:52:10.998Z,2.72
2022-09-14T12:55:00.480Z,2.33
2022-09-14T12:57:42.301Z,2.00
2022-09-14T13:00:16.167Z,2.55
2022-09-14T13:02:50.626Z,2.38
2022-09-14T13:05:23.675Z,2.40
2022-09-14T13:07:51.536Z,2.35
2022-09-14T13:10:24.600Z,2.40
2022-09-14T13:12:52.328Z,2.88
2022-09-14T13:15:25.363Z,2.70
2022-09-14T13:18:04.791Z,3.50
2022-09-14T13:20:36.025Z,2.55
2022-09-14T13:23:03.413Z,2.70
2022-09-14T13:25:37.148Z,2.83
2022-09-14T13:28:07.196Z,2.67
2022-09-14T13:30:35.935Z,2.63
2022-09-14T13:33:03.779Z,2.50
2022-09-14T13:35:38.891Z,2.58
2022-09-14T13:38:09.989Z,3.08
2022-09-14T13:40:37.212Z,3.42
2022-09-14T13:43:04.697Z,3.10
2022-09-14T13:45:32.961Z,3.08
2022-09-14T13:47:59.959Z,2.65
2022-09-14T13:50:27.193Z,2.70
2022-09-14T13:53:03.481Z,2.90
2022-09-14T13:55:33.888Z,2.45
2022-09-14T13:58:09.937Z,2.50
2022-09-14T14:00:48.814Z,2.65
2022-09-14T14:03:38.064Z,2.92
2022-09-14T14:06:29.452Z,3.03
2022-09-14T14:08:58.992Z,2.17
2022-09-14T14:11:36.335Z,2.55
2022-09-14T14:14:26.571Z,2.30
2022-09-14T14:17:20.265Z,2.42
2022-09-14T14:19:48.057Z,2.60
2022-09-14T14:22:14.842Z,2.53
2022-09-14T14:25:09.094Z,2.70
2022-09-14T14:27:37.835Z,3.00
2022-09-14T14:30:14.669Z,2.10
2022-09-14T14:32:41.546Z,2.67
2022-09-14T14:35:16.743Z,3.50
2022-09-14T14:37:43.608Z,2.75
2022-09-14T14:40:13.309Z,2.88
2022-09-14T14:42:41.172Z,3.55
2022-09-14T14:45:18.891Z,3.45
2022-09-14T14:47:47.412Z,3.25
2022-09-14T14:50:17.022Z,3.28
2022-09-14T14:52:43.935Z,3.38
2022-09-14T14:55:10.795Z,3.50
2022-09-14T14:57:40.840Z,3.70
2022-09-14T15:00:17.811Z,3.03
2022-09-14T15:02:44.883Z,4.10
2022-09-14T15:05:12.833Z,3.88
2022-09-14T15:07:40.306Z,3.70
2022-09-14T15:10:09.778Z,3.60
2022-09-14T15:12:37.099Z,3.78
2022-09-14T15:15:04.556Z,3.70
2022-09-14T15:17:31.415Z,3.85
2022-09-14T15:19:58.246Z,3.47
2022-09-14T15:22:25.245Z,3.60
2022-09-14T15:24:52.063Z,2.30
2022-09-14T15:27:18.868Z,3.50
2022-09-14T15:29:45.843Z,3.00
2022-09-14T15:32:12.757Z,3.25
2022-09-14T15:34:39.567Z,3.45
2022-09-14T15:37:06.411Z,2.75
2022-09-14T15:39:33.275Z,3.40
2022-09-14T15:42:00.389Z,2.92
2022-09-14T15:44:27.288Z,2.50
2022-09-14T15:46:56.065Z,3.30
2022-09-14T15:49:24.984Z,2.92
2022-09-14T15:51:53.987Z,3.45
2022-09-14T15:54:24.936Z,3.08
2022-09-14T15:56:54.812Z,3.00
2022-09-14T15:59:22.493Z,3.20
2022-09-14T16:01:49.919Z,2.80
2022-09-14T16:04:17.568Z,3.22
2022-09-14T16:06:44.694Z,2.97
2022-09-14T16:09:13.427Z,3.53
2022-09-14T16:11:40.796Z,4.38
2022-09-14T16:14:10.007Z,4.35
2022-09-14T16:16:37.923Z,5.15
2022-09-14T16:19:13.342Z,4.90
2022-09-14T16:21:41.676Z,4.75
2022-09-14T16:24:12.235Z,4.47
2022-09-14T16:26:39.605Z,3.65
2022-09-14T16:29:11.657Z,4.47
2022-09-14T16:31:40.582Z,4.40
2022-09-14T16:34:16.782Z,4.78
2022-09-14T16:36:44.410Z,4.50
2022-09-14T16:39:16.742Z,3.85
2022-09-14T16:41:44.419Z,4.15
2022-09-14T16:44:17.856Z,4.88
2022-09-14T16:46:45.086Z,5.32
2022-09-14T16:49:12.282Z,4.13
2022-09-14T16:51:39.367Z,5.22
2022-09-14T16:54:06.966Z,5.57
2022-09-14T16:56:37.300Z,4.65
2022-09-14T16:59:05.349Z,5.40
2022-09-14T17:01:35.402Z,4.43
2022-09-14T17:04:08.265Z,5.22
2022-09-14T17:06:37.556Z,5.38
2022-09-14T17:09:10.376Z,7.03
2022-09-14T17:11:38.780Z,6.25
2022-09-14T17:14:06.432Z,5.53
2022-09-14T17:16:33.621Z,6.38
2022-09-14T17:19:03.156Z,6.70
2022-09-14T17:21:33.249Z,6.05
2022-09-14T17:24:00.999Z,6.70
2022-09-14T17:26:28.174Z,5.85
2022-09-14T17:28:56.971Z,6.55
2022-09-14T17:31:26.695Z,6.20
2022-09-14T17:33:55.375Z,5.63
2022-09-14T17:36:22.784Z,6.15
2022-09-14T17:38:50.268Z,6.70
2022-09-14T17:41:22.762Z,7.47
2022-09-14T17:43:58.616Z,7.20
2022-09-14T17:46:27.087Z,7.53
2022-09-14T17:48:54.558Z,7.45
2022-09-14T17:51:24.333Z,6.35
2022-09-14T17:53:53.634Z,7.10
2022-09-14T17:56:24.318Z,7.63
2022-09-14T17:58:59.106Z,7.40
2022-09-14T18:01:26.347Z,6.80
2022-09-14T18:04:01.891Z,7.93
2022-09-14T18:06:32.967Z,8.02
2022-09-14T18:09:03.525Z,6.82
2022-09-14T18:11:31.244Z,7.30
2022-09-14T18:13:58.656Z,7.57
2022-09-14T18:16:26.329Z,6.95
2022-09-14T18:18:53.493Z,7.30
2022-09-14T18:21:20.648Z,6.38
2022-09-14T18:23:51.764Z,7.60
2022-09-14T18:26:19.181Z,6.43
2022-09-14T18:28:46.460Z,5.80
2022-09-14T18:31:16.013Z,6.93
2022-09-14T18:33:50.320Z,7.05
2022-09-14T18:36:18.080Z,6.53
2022-09-14T18:38:45.432Z,6.25
2022-09-14T18:41:13.252Z,5.70
2022-09-14T18:43:44.657Z,6.32
2022-09-14T18:46:12.257Z,5.97
2022-09-14T18:48:40.619Z,5.53
2022-09-14T18:51:08.331Z,5.18
2022-09-14T18:53:35.869Z,5.53
2022-09-14T18:56:11.548Z,5.60
2022-09-14T18:58:45.398Z,6.00
2022-09-14T19:01:13.627Z,5.32
2022-09-14T19:03:42.427Z,5.75
2022-09-14T19:06:14.610Z,6.00
2022-09-14T19:08:42.158Z,5.35
2022-09-14T19:11:14.963Z,5.47
2022-09-14T19:13:42.175Z,6.15
2022-09-14T19:16:19.344Z,5.50
2022-09-14T19:18:48.049Z,6.07
2022-09-14T19:21:21.633Z,6.43
2022-09-14T19:24:02.817Z,6.93
2022-09-14T19:26:33.490Z,6.95
2022-09-14T19:29:05.534Z,7.30
2022-09-14T19:31:33.622Z,7.00
2022-09-14T19:34:02.061Z,7.05
2022-09-14T19:36:29.731Z,6.35
2022-09-14T19:39:01.423Z,6.45
2022-09-14T19:41:29.216Z,6.97
2022-09-14T19:43:56.081Z,6.82
2022-09-14T19:46:23.568Z,7.28
2022-09-14T19:48:51.087Z,7.38
2022-09-14T19:51:21.403Z,6.85
2022-09-14T19:53:50.910Z,7.22
2022-09-14T19:56:21.686Z,7.47
2022-09-14T19:58:50.507Z,6.78
2022-09-14T20:01:19.343Z,8.40
2022-09-14T20:03:47.883Z,7.20
2022-09-14T20:06:23.551Z,7.90
2022-09-14T20:09:12.233Z,7.60
2022-09-14T20:11:40.786Z,8.10
2022-09-14T20:14:10.850Z,7.78
2022-09-14T20:16:40.921Z,7.60
2022-09-14T20:19:16.087Z,7.22
2022-09-14T20:21:44.462Z,7.97
2022-09-14T20:24:16.967Z,7.93
2022-09-14T20:29:17.554Z,8.10
2022-09-14T20:31:45.231Z,8.50
2022-09-14T20:34:13.094Z,8.05
2022-09-14T20:36:40.010Z,7.70
2022-09-14T20:39:07.174Z,8.25
2022-09-14T20:41:35.728Z,7.70
2022-09-14T20:44:03.863Z,8.55
2022-09-14T20:46:36.114Z,8.43
2022-09-14T20:49:06.147Z,8.43
2022-09-14T20:51:34.209Z,9.00
2022-09-14T20:54:01.259Z,9.38
2022-09-14T20:56:30.501Z,9.77
2022-09-14T20:59:01.246Z,9.57
2022-09-14T21:01:30.671Z,10.70
2022-09-14T21:04:04.144Z,12.43
2022-09-14T21:09:00.804Z,13.05
2022-09-14T21:11:28.396Z,14.10
2022-09-14T21:13:56.668Z,15.73
2022-09-14T21:16:25.715Z,16.38
2022-09-14T21:18:55.840Z,17.52
2022-09-14T21:21:23.466Z,16.25
2022-09-14T21:23:50.607Z,15.98
2022-09-14T21:26:19.373Z,16.15
2022-09-14T21:28:46.635Z,15.60
2022-09-14T21:31:19.984Z,14.85
2022-09-14T21:36:18.101Z,13.63
2022-09-14T21:38:54.296Z,13.07
2022-09-14T21:41:23.365Z,12.70
2022-09-14T21:43:51.179Z,12.35
2022-09-14T21:46:18.475Z,13.68
2022-09-14T21:48:46.776Z,13.05
2022-09-14T21:51:18.049Z,12.45
2022-09-14T21:53:59.763Z,13.43
2022-09-14T21:56:29.955Z,12.05
2022-09-14T21:59:01.925Z,11.85
2022-09-14T22:01:29.900Z,12.43
2022-09-14T22:03:58.041Z,13.70
2022-09-14T22:06:28.002Z,11.88
2022-09-14T22:08:55.974Z,11.70
2022-09-14T22:11:25.104Z,12.77
2022-09-14T22:13:57.325Z,12.32
2022-09-14T22:16:26.554Z,11.77
2022-09-14T22:18:56.722Z,11.82
2022-09-14T22:21:25.416Z,11.38
2022-09-14T22:23:54.455Z,11.80
2022-09-14T22:26:22.152Z,12.38
2022-09-14T22:28:50.986Z,12.18
2022-09-14T22:31:20.576Z,11.93
2022-09-14T22:33:48.309Z,12.35
2022-09-14T22:36:15.531Z,12.55
2022-09-14T22:38:42.914Z,11.50
2022-09-14T22:41:17.599Z,12.88
2022-09-14T22:43:45.090Z,12.07
2022-09-14T22:46:12.830Z,14.68
2022-09-14T22:48:42.296Z,13.07
2022-09-14T22:51:12.537Z,12.63
2022-09-14T22:53:39.688Z,13.75
2022-09-14T22:56:27.948Z,14.18
2022-09-14T22:58:56.504Z,15.07
2022-09-14T23:01:31.951Z,14.02
2022-09-14T23:04:05.204Z,13.77
2022-09-14T23:06:41.658Z,13.95
2022-09-14T23:09:11.664Z,14.80
2022-09-14T23:11:38.593Z,13.40
2022-09-14T23:14:05.434Z,13.88
2022-09-14T23:16:32.590Z,13.07
2022-09-14T23:19:03.437Z,13.75
2022-09-14T23:21:31.566Z,12.63
2022-09-14T23:24:02.243Z,13.55
2022-09-14T23:26:29.970Z,13.38
2022-09-14T23:29:07.032Z,15.15
2022-09-14T23:31:34.176Z,12.75
2022-09-14T23:34:02.627Z,13.52
2022-09-14T23:36:30.265Z,13.88
2022-09-14T23:38:57.536Z,13.10
2022-09-14T23:41:25.942Z,14.50
2022-09-14T23:43:53.084Z,12.65
2022-09-14T23:46:20.919Z,13.23
2022-09-14T23:48:48.098Z,12.43
2022-09-14T23:51:15.382Z,12.35
2022-09-14T23:53:43.219Z,11.40
2022-09-14T23:56:10.993Z,11.82
2022-09-14T23:58:38.689Z,12.60
